createdAt,value
2018-02-27T00:00:38.521Z,-6.96
2018-02-27T00:03:06.824Z,-6.89
2018-02-27T00:05:35.160Z,-6.86
2018-02-27T00:08:03.516Z,-6.93
2018-02-27T00:10:31.838Z,-6.93
2018-02-27T00:13:00.150Z,-6.91
2018-02-27T00:15:28.492Z,-6.96
2018-02-27T00:17:56.891Z,-6.95
2018-02-27T00:20:25.251Z,-6.92
2018-02-27T00:22:53.665Z,-6.91
2018-02-27T00:25:21.967Z,-6.98
2018-02-27T00:27:50.336Z,-7.00
2018-02-27T00:30:18.643Z,-6.98
2018-02-27T00:32:46.958Z,-7.11
2018-02-27T00:35:15.312Z,-7.10
2018-02-27T00:37:43.627Z,-7.06
2018-02-27T00:40:11.977Z,-6.98
2018-02-27T00:42:40.352Z,-7.04
2018-02-27T00:45:08.776Z,-7.04
2018-02-27T00:47:37.121Z,-7.01
2018-02-27T00:50:05.474Z,-7.08
2018-02-27T00:52:33.801Z,-7.11
2018-02-27T00:55:02.105Z,-7.05
2018-02-27T00:57:30.423Z,-7.15
2018-02-27T00:59:58.745Z,-7.11
2018-02-27T01:02:27.083Z,-7.14
2018-02-27T01:04:55.415Z,-7.20
2018-02-27T01:07:23.718Z,-7.24
2018-02-27T01:09:52.014Z,-7.17
2018-02-27T01:12:20.355Z,-7.12
2018-02-27T01:14:48.658Z,-7.14
2018-02-27T01:17:16.992Z,-7.15
2018-02-27T01:19:45.353Z,-7.17
2018-02-27T01:22:13.682Z,-7.19
2018-02-27T01:24:42.027Z,-7.15
2018-02-27T01:27:10.334Z,-7.17
2018-02-27T01:29:38.731Z,-7.17
2018-02-27T01:32:07.070Z,-7.16
2018-02-27T01:34:35.398Z,-7.22
2018-02-27T01:37:03.749Z,-7.33
2018-02-27T01:39:32.083Z,-7.36
2018-02-27T01:42:00.395Z,-7.31
2018-02-27T01:44:28.726Z,-7.33
2018-02-27T01:46:57.042Z,-7.38
2018-02-27T01:49:25.368Z,-7.48
2018-02-27T01:51:53.692Z,-7.52
2018-02-27T01:54:22.022Z,-7.51
2018-02-27T01:56:50.385Z,-7.57
2018-02-27T01:59:18.738Z,-7.57
2018-02-27T02:01:47.075Z,-7.53
2018-02-27T02:04:15.431Z,-7.45
2018-02-27T02:06:43.721Z,-7.57
2018-02-27T02:09:12.066Z,-7.69
2018-02-27T02:11:40.401Z,-7.61
2018-02-27T02:14:08.747Z,-7.63
2018-02-27T02:16:37.076Z,-7.69
2018-02-27T02:19:05.494Z,-7.62
2018-02-27T02:21:33.881Z,-7.76
2018-02-27T02:24:02.306Z,-7.75
2018-02-27T02:26:30.606Z,-7.69
2018-02-27T02:28:58.941Z,-7.72
2018-02-27T02:31:27.265Z,-7.72
2018-02-27T02:33:55.605Z,-7.74
2018-02-27T02:36:23.979Z,-7.74
2018-02-27T02:38:52.287Z,-7.71
2018-02-27T02:41:20.625Z,-7.86
2018-02-27T02:43:48.952Z,-7.86
2018-02-27T02:46:17.761Z,-7.86
2018-02-27T02:48:53.074Z,-7.78
2018-02-27T02:51:21.430Z,-7.78
2018-02-27T02:53:49.886Z,-7.80
2018-02-27T02:56:18.180Z,-7.77
2018-02-27T02:58:46.518Z,-7.76
2018-02-27T03:01:14.826Z,-7.80
2018-02-27T03:03:43.128Z,-7.85
2018-02-27T03:06:11.470Z,-7.81
2018-02-27T03:08:39.817Z,-7.85
2018-02-27T03:11:08.112Z,-7.88
2018-02-27T03:13:36.476Z,-7.85
2018-02-27T03:16:04.782Z,-7.82
2018-02-27T03:18:33.109Z,-7.84
2018-02-27T03:21:01.478Z,-7.77
2018-02-27T03:23:29.801Z,-7.80
2018-02-27T03:25:58.117Z,-7.72
2018-02-27T03:28:26.451Z,-7.70
2018-02-27T03:30:54.882Z,-7.67
2018-02-27T03:33:23.185Z,-7.66
2018-02-27T03:35:51.512Z,-7.71
2018-02-27T03:38:19.849Z,-7.69
2018-02-27T03:40:48.188Z,-7.74
2018-02-27T03:43:16.539Z,-7.75
2018-02-27T03:45:44.907Z,-7.75
2018-02-27T03:48:13.215Z,-7.72
2018-02-27T03:50:41.566Z,-7.65
2018-02-27T03:53:09.907Z,-7.65
2018-02-27T03:55:38.227Z,-7.68
2018-02-27T03:58:06.576Z,-7.72
2018-02-27T04:00:34.928Z,-7.72
2018-02-27T04:03:03.247Z,-7.70
2018-02-27T04:05:31.575Z,-7.81
2018-02-27T04:07:59.914Z,-7.80
2018-02-27T04:10:28.265Z,-7.71
2018-02-27T04:12:56.578Z,-7.78
2018-02-27T04:15:24.893Z,-7.72
2018-02-27T04:17:53.243Z,-7.79
2018-02-27T04:20:21.589Z,-7.66
2018-02-27T04:22:49.925Z,-7.74
2018-02-27T04:25:18.246Z,-7.68
2018-02-27T04:27:46.741Z,-7.75
2018-02-27T04:30:15.060Z,-7.68
2018-02-27T04:32:43.420Z,-7.67
2018-02-27T04:35:11.799Z,-7.72
2018-02-27T04:37:40.123Z,-7.68
2018-02-27T04:40:08.474Z,-7.74
2018-02-27T04:42:36.824Z,-7.69
2018-02-27T04:45:05.129Z,-7.67
2018-02-27T04:47:33.449Z,-7.75
2018-02-27T04:50:01.810Z,-7.79
2018-02-27T04:52:30.165Z,-7.82
2018-02-27T04:54:58.498Z,-7.82
2018-02-27T04:57:26.840Z,-7.77
2018-02-27T04:59:55.165Z,-7.79
2018-02-27T05:02:23.503Z,-7.76
2018-02-27T05:04:51.898Z,-7.85
2018-02-27T05:07:20.251Z,-7.78
2018-02-27T05:09:48.593Z,-7.84
2018-02-27T05:12:17.001Z,-7.71
2018-02-27T05:14:45.374Z,-7.76
2018-02-27T05:17:13.716Z,-7.72
2018-02-27T05:19:42.068Z,-7.78
2018-02-27T05:22:10.625Z,-7.73
2018-02-27T05:24:39.603Z,-7.76
2018-02-27T05:27:07.988Z,-7.76
2018-02-27T05:29:36.318Z,-7.74
2018-02-27T05:32:04.641Z,-7.82
2018-02-27T05:34:32.997Z,-7.80
2018-02-27T05:37:01.390Z,-7.79
2018-02-27T05:39:29.723Z,-7.76
2018-02-27T05:41:58.034Z,-7.80
2018-02-27T05:44:26.384Z,-7.73
2018-02-27T05:46:54.716Z,-7.71
2018-02-27T05:49:23.050Z,-7.71
2018-02-27T05:51:51.369Z,-7.73
2018-02-27T05:54:19.743Z,-7.75
2018-02-27T05:56:48.073Z,-7.74
2018-02-27T05:59:16.402Z,-7.76
2018-02-27T06:01:44.794Z,-7.73
2018-02-27T06:04:13.167Z,-7.75
2018-02-27T06:06:41.548Z,-7.67
2018-02-27T06:09:09.868Z,-7.64
2018-02-27T06:11:38.203Z,-7.57
2018-02-27T06:14:06.590Z,-7.56
2018-02-27T06:16:34.924Z,-7.42
2018-02-27T06:19:03.308Z,-7.32
2018-02-27T06:21:31.692Z,-7.37
2018-02-27T06:24:00.049Z,-7.13
2018-02-27T06:26:28.458Z,-6.98
2018-02-27T06:28:56.776Z,-7.13
2018-02-27T06:31:25.154Z,-7.13
2018-02-27T06:33:53.554Z,-6.98
2018-02-27T06:36:21.924Z,-6.93
2018-02-27T06:38:50.305Z,-6.71
2018-02-27T06:41:18.657Z,-6.81
2018-02-27T06:43:47.009Z,-6.61
2018-02-27T06:46:15.337Z,-6.57
2018-02-27T06:48:43.679Z,-6.69
2018-02-27T06:51:12.036Z,-6.55
2018-02-27T06:53:40.373Z,-6.62
2018-02-27T06:56:08.700Z,-6.44
2018-02-27T06:58:37.076Z,-6.36
2018-02-27T07:01:05.407Z,-5.97
2018-02-27T07:03:33.877Z,-5.88
2018-02-27T07:06:02.265Z,-5.69
2018-02-27T07:08:30.658Z,-5.89
2018-02-27T07:10:58.985Z,-5.30
2018-02-27T07:13:27.316Z,-4.95
2018-02-27T07:15:55.714Z,-4.78
2018-02-27T07:18:24.044Z,-4.82
2018-02-27T07:20:52.410Z,-4.80
2018-02-27T07:23:20.775Z,-4.58
2018-02-27T07:25:49.100Z,-4.44
2018-02-27T07:28:17.453Z,-4.64
2018-02-27T07:30:45.758Z,-4.31
2018-02-27T07:33:14.105Z,-4.08
2018-02-27T07:35:42.487Z,-4.03
2018-02-27T07:38:10.828Z,-4.19
2018-02-27T07:40:39.181Z,-3.99
2018-02-27T07:43:07.541Z,-4.39
2018-02-27T07:45:35.930Z,-3.92
2018-02-27T07:48:04.298Z,-4.33
2018-02-27T07:50:32.653Z,-4.33
2018-02-27T07:53:01.002Z,-3.94
2018-02-27T07:55:29.340Z,-4.71
2018-02-27T07:57:57.681Z,-4.45
2018-02-27T08:00:26.026Z,-4.78
2018-02-27T08:02:54.366Z,-4.26
2018-02-27T08:05:22.686Z,-4.69
2018-02-27T08:07:51.065Z,-4.67
2018-02-27T08:10:19.375Z,-4.43
2018-02-27T08:12:47.767Z,-4.52
2018-02-27T08:15:16.078Z,-4.78
2018-02-27T08:17:44.406Z,-4.72
2018-02-27T08:20:12.747Z,-4.73
2018-02-27T08:22:41.103Z,-5.70
2018-02-27T08:25:09.541Z,-5.97
2018-02-27T08:27:37.845Z,-4.77
2018-02-27T08:30:06.183Z,-4.35
2018-02-27T08:32:34.561Z,-4.70
2018-02-27T08:35:02.992Z,-5.27
2018-02-27T08:37:31.311Z,-4.14
2018-02-27T08:39:59.649Z,-4.08
2018-02-27T08:42:27.950Z,-3.92
2018-02-27T08:44:56.279Z,-4.00
2018-02-27T08:47:24.633Z,-3.70
2018-02-27T08:49:52.974Z,-3.91
2018-02-27T08:52:21.367Z,-3.27
2018-02-27T08:54:49.711Z,-3.04
2018-02-27T08:57:18.028Z,-2.84
2018-02-27T08:59:46.400Z,-2.11
2018-02-27T09:02:14.702Z,-2.38
2018-02-27T09:04:43.072Z,-2.04
2018-02-27T09:07:11.395Z,-1.78
2018-02-27T09:09:39.732Z,-1.83
2018-02-27T09:12:08.089Z,-1.75
2018-02-27T09:14:36.410Z,-1.47
2018-02-27T09:17:04.787Z,-2.62
2018-02-27T09:19:33.177Z,-2.05
2018-02-27T09:22:01.517Z,-2.16
2018-02-27T09:24:29.870Z,-1.15
2018-02-27T09:26:58.235Z,-1.00
2018-02-27T09:29:26.637Z,0.14
2018-02-27T09:31:54.951Z,0.24
2018-02-27T09:34:23.318Z,0.38
2018-02-27T09:36:51.660Z,-0.18
2018-02-27T09:39:19.968Z,0.11
2018-02-27T09:41:48.294Z,0.36
2018-02-27T09:44:16.637Z,0.85
2018-02-27T09:46:44.947Z,0.89
2018-02-27T09:49:13.271Z,-0.08
2018-02-27T09:51:41.572Z,0.76
2018-02-27T09:54:09.916Z,2.41
2018-02-27T09:56:38.250Z,1.89
2018-02-27T09:59:06.573Z,3.48
2018-02-27T10:01:34.929Z,3.42
2018-02-27T10:04:03.281Z,3.96
2018-02-27T10:06:31.573Z,3.69
2018-02-27T10:08:59.894Z,3.02
2018-02-27T10:11:28.224Z,2.29
2018-02-27T10:13:56.551Z,3.52
2018-02-27T10:16:24.902Z,4.55
2018-02-27T10:18:53.248Z,3.05
2018-02-27T10:21:21.565Z,3.85
2018-02-27T10:23:49.908Z,5.53
2018-02-27T10:26:18.249Z,4.99
2018-02-27T10:28:46.587Z,5.26
2018-02-27T10:31:14.894Z,4.76
2018-02-27T10:33:43.219Z,5.37
2018-02-27T10:36:11.569Z,6.76
2018-02-27T10:38:39.924Z,5.16
2018-02-27T10:41:08.286Z,7.20
2018-02-27T10:43:36.587Z,6.44
2018-02-27T10:46:04.897Z,5.38
2018-02-27T10:48:33.201Z,3.40
2018-02-27T10:51:01.532Z,6.76
2018-02-27T10:53:29.839Z,4.64
2018-02-27T10:55:58.189Z,3.59
2018-02-27T10:58:26.493Z,4.12
2018-02-27T11:00:56.808Z,6.30
2018-02-27T11:03:25.108Z,4.57
2018-02-27T11:05:53.440Z,6.64
2018-02-27T11:08:21.798Z,5.29
2018-02-27T11:10:50.093Z,4.33
2018-02-27T11:13:18.434Z,4.85
2018-02-27T11:15:46.768Z,4.60
2018-02-27T11:18:15.116Z,3.58
2018-02-27T11:20:43.481Z,4.83
2018-02-27T11:23:11.801Z,4.99
2018-02-27T11:25:40.152Z,5.57
2018-02-27T11:28:08.476Z,3.86
2018-02-27T11:30:36.805Z,4.63
2018-02-27T11:33:05.128Z,3.96
2018-02-27T11:35:33.484Z,1.71
2018-02-27T11:38:01.829Z,2.07
2018-02-27T11:40:30.142Z,0.76
2018-02-27T11:42:58.514Z,0.72
2018-02-27T11:45:26.824Z,0.84
2018-02-27T11:47:55.140Z,0.09
2018-02-27T11:50:23.524Z,0.42
2018-02-27T11:52:51.862Z,0.36
2018-02-27T11:55:20.201Z,-0.56
2018-02-27T11:57:48.514Z,-1.33
2018-02-27T12:00:16.854Z,-1.31
2018-02-27T12:02:45.181Z,-1.01
2018-02-27T12:05:13.533Z,-1.25
2018-02-27T12:07:41.886Z,-0.12
2018-02-27T12:10:10.246Z,0.47
2018-02-27T12:12:38.585Z,1.01
2018-02-27T12:15:06.914Z,1.02
2018-02-27T12:17:35.279Z,-0.49
2018-02-27T12:20:03.606Z,-0.46
2018-02-27T12:22:31.930Z,-0.58
2018-02-27T12:25:00.234Z,-1.30
2018-02-27T12:27:28.637Z,-0.85
2018-02-27T12:29:56.969Z,-1.83
2018-02-27T12:32:25.286Z,-2.53
2018-02-27T12:34:53.634Z,-2.97
2018-02-27T12:37:21.976Z,-3.61
2018-02-27T12:39:50.307Z,-3.82
2018-02-27T12:42:18.648Z,-4.40
2018-02-27T12:44:46.966Z,-4.37
2018-02-27T12:47:15.333Z,-4.10
2018-02-27T12:49:43.652Z,-4.81
2018-02-27T12:52:11.980Z,-4.86
2018-02-27T12:54:40.297Z,-4.70
2018-02-27T12:57:08.613Z,-4.08
2018-02-27T12:59:36.960Z,-4.33
2018-02-27T13:02:05.279Z,-4.24
2018-02-27T13:04:33.600Z,-4.24
2018-02-27T13:07:01.953Z,-4.27
2018-02-27T13:09:30.249Z,-4.18
2018-02-27T13:11:58.615Z,-3.94
2018-02-27T13:14:26.976Z,-3.93
2018-02-27T13:16:55.324Z,-4.32
2018-02-27T13:19:23.634Z,-4.35
2018-02-27T13:21:51.944Z,-4.21
2018-02-27T13:24:20.455Z,-3.94
2018-02-27T13:26:48.853Z,-3.07
2018-02-27T13:29:17.217Z,-3.12
2018-02-27T13:31:45.520Z,-3.95
2018-02-27T13:34:13.848Z,-4.33
2018-02-27T13:36:42.177Z,-4.27
2018-02-27T13:39:10.499Z,-4.47
2018-02-27T13:41:38.854Z,-4.71
2018-02-27T13:44:07.277Z,-4.67
2018-02-27T13:46:35.602Z,-4.53
2018-02-27T13:49:04.119Z,-4.60
2018-02-27T13:51:32.348Z,-4.85
2018-02-27T13:54:00.703Z,-4.64
2018-02-27T13:56:29.059Z,-4.55
2018-02-27T13:58:57.408Z,-4.20
2018-02-27T14:01:25.721Z,-4.34
2018-02-27T14:03:54.028Z,-4.21
2018-02-27T14:06:22.355Z,-4.27
2018-02-27T14:08:50.735Z,-4.32
2018-02-27T14:11:19.076Z,-3.75
2018-02-27T14:13:47.419Z,-3.95
2018-02-27T14:16:15.778Z,-3.66
2018-02-27T14:18:44.094Z,-4.01
2018-02-27T14:21:12.406Z,-3.79
2018-02-27T14:23:40.762Z,-3.47
2018-02-27T14:26:09.096Z,-3.53
2018-02-27T14:28:37.493Z,-3.68
2018-02-27T14:31:05.808Z,-3.20
2018-02-27T14:33:34.130Z,-3.44
2018-02-27T14:36:02.472Z,-3.88
2018-02-27T14:38:30.815Z,-4.01
2018-02-27T14:40:59.156Z,-4.20
2018-02-27T14:43:27.509Z,-4.86
2018-02-27T14:45:55.829Z,-5.23
2018-02-27T14:48:24.160Z,-5.37
2018-02-27T14:50:52.525Z,-5.44
2018-02-27T14:53:20.892Z,-5.59
2018-02-27T14:55:49.203Z,-5.30
2018-02-27T14:58:17.572Z,-5.61
2018-02-27T15:00:45.953Z,-5.12
2018-02-27T15:03:14.286Z,-4.71
2018-02-27T15:05:42.607Z,-4.94
2018-02-27T15:08:10.960Z,-4.98
2018-02-27T15:10:39.259Z,-5.20
2018-02-27T15:13:07.575Z,-5.83
2018-02-27T15:15:36.004Z,-5.42
2018-02-27T15:18:04.269Z,-5.41
2018-02-27T15:20:32.575Z,-5.54
2018-02-27T15:23:00.900Z,-5.62
2018-02-27T15:25:29.272Z,-5.69
2018-02-27T15:27:57.632Z,-5.50
2018-02-27T15:30:25.944Z,-5.50
2018-02-27T15:32:54.278Z,-5.85
2018-02-27T15:35:22.609Z,-5.85
2018-02-27T15:37:50.915Z,-5.37
2018-02-27T15:40:19.228Z,-5.24
2018-02-27T15:42:47.602Z,-5.48
2018-02-27T15:45:15.926Z,-5.75
2018-02-27T15:47:44.258Z,-5.53
2018-02-27T15:50:12.582Z,-5.70
2018-02-27T15:52:40.916Z,-5.64
2018-02-27T15:55:09.281Z,-5.95
2018-02-27T15:57:37.631Z,-6.08
2018-02-27T16:00:05.964Z,-6.13
2018-02-27T16:02:34.333Z,-6.03
2018-02-27T16:05:02.755Z,-6.07
2018-02-27T16:07:31.101Z,-6.35
2018-02-27T16:09:59.441Z,-6.35
2018-02-27T16:12:27.822Z,-6.65
2018-02-27T16:14:56.176Z,-6.58
2018-02-27T16:17:24.589Z,-6.63
2018-02-27T16:19:52.906Z,-6.55
2018-02-27T16:22:21.265Z,-6.48
2018-02-27T16:24:49.583Z,-6.74
2018-02-27T16:27:17.951Z,-6.59
2018-02-27T16:29:46.329Z,-6.68
2018-02-27T16:32:14.691Z,-6.86
2018-02-27T16:34:43.006Z,-6.97
2018-02-27T16:37:11.331Z,-7.14
2018-02-27T16:39:39.679Z,-6.80
2018-02-27T16:42:07.989Z,-6.74
2018-02-27T16:44:36.476Z,-7.04
2018-02-27T16:47:04.905Z,-6.95
2018-02-27T16:49:33.238Z,-6.84
2018-02-27T16:52:01.597Z,-7.05
2018-02-27T16:54:29.957Z,-7.16
2018-02-27T16:56:58.333Z,-7.19
2018-02-27T16:59:26.708Z,-7.30
2018-02-27T17:01:55.066Z,-7.17
2018-02-27T17:04:23.431Z,-7.39
2018-02-27T17:06:51.934Z,-7.40
2018-02-27T17:09:20.377Z,-7.49
2018-02-27T17:11:48.744Z,-7.36
2018-02-27T17:14:17.119Z,-7.22
2018-02-27T17:16:45.476Z,-7.68
2018-02-27T17:19:14.682Z,-7.72
2018-02-27T17:21:43.130Z,-7.60
2018-02-27T17:24:11.611Z,-7.70
2018-02-27T17:26:40.019Z,-7.73
2018-02-27T17:29:08.495Z,-7.61
2018-02-27T17:31:36.835Z,-7.40
2018-02-27T17:34:05.325Z,-7.53
2018-02-27T17:36:33.685Z,-7.57
2018-02-27T17:39:02.068Z,-7.52
2018-02-27T17:41:30.503Z,-7.42
2018-02-27T17:43:58.836Z,-7.36
2018-02-27T17:46:27.202Z,-7.46
2018-02-27T17:48:55.574Z,-7.88
2018-02-27T17:51:23.931Z,-8.05
2018-02-27T17:53:52.306Z,-7.86
2018-02-27T17:56:20.659Z,-8.04
2018-02-27T17:58:49.034Z,-7.91
2018-02-27T18:01:17.431Z,-7.82
2018-02-27T18:03:45.865Z,-7.91
2018-02-27T18:06:14.229Z,-8.07
2018-02-27T18:08:42.575Z,-8.03
2018-02-27T18:11:10.956Z,-7.86
2018-02-27T18:13:39.335Z,-7.91
2018-02-27T18:16:07.697Z,-7.91
2018-02-27T18:18:36.061Z,-7.96
2018-02-27T18:21:04.458Z,-7.85
2018-02-27T18:23:32.823Z,-7.76
2018-02-27T18:26:01.152Z,-7.84
2018-02-27T18:28:29.518Z,-7.84
2018-02-27T18:30:57.876Z,-7.98
2018-02-27T18:33:26.209Z,-8.03
2018-02-27T18:35:54.560Z,-7.78
2018-02-27T18:38:22.902Z,-7.87
2018-02-27T18:40:51.285Z,-7.91
2018-02-27T18:43:19.636Z,-7.84
2018-02-27T18:45:48.003Z,-7.97
2018-02-27T18:48:16.397Z,-7.86
2018-02-27T18:50:44.736Z,-7.78
2018-02-27T18:53:13.102Z,-7.83
2018-02-27T18:55:41.471Z,-7.81
2018-02-27T18:58:09.810Z,-7.88
2018-02-27T19:00:38.174Z,-7.85
2018-02-27T19:03:06.508Z,-7.95
2018-02-27T19:05:34.844Z,-7.87
2018-02-27T19:08:03.196Z,-7.95
2018-02-27T19:10:31.510Z,-8.05
2018-02-27T19:12:59.915Z,-8.19
2018-02-27T19:15:28.317Z,-8.48
2018-02-27T19:17:56.677Z,-8.50
2018-02-27T19:20:25.061Z,-8.47
2018-02-27T19:22:53.422Z,-8.37
2018-02-27T19:25:21.863Z,-8.26
2018-02-27T19:27:50.217Z,-8.24
2018-02-27T19:30:18.633Z,-8.42
2018-02-27T19:32:46.998Z,-8.50
2018-02-27T19:35:15.377Z,-8.47
2018-02-27T19:37:43.692Z,-8.56
2018-02-27T19:40:12.154Z,-8.65
2018-02-27T19:42:40.509Z,-8.62
2018-02-27T19:45:08.854Z,-8.64
2018-02-27T19:47:37.286Z,-8.66
2018-02-27T19:50:05.634Z,-8.63
2018-02-27T19:52:33.966Z,-8.49
2018-02-27T19:55:02.334Z,-8.54
2018-02-27T19:57:30.760Z,-8.52
2018-02-27T19:59:59.130Z,-8.61
2018-02-27T20:02:27.525Z,-8.72
2018-02-27T20:04:55.982Z,-8.59
2018-02-27T20:07:24.354Z,-8.61
2018-02-27T20:09:52.703Z,-8.67
2018-02-27T20:12:21.061Z,-8.80
2018-02-27T20:14:49.378Z,-8.78
2018-02-27T20:17:17.723Z,-8.92
2018-02-27T20:19:46.098Z,-8.99
2018-02-27T20:22:14.536Z,-9.11
2018-02-27T20:24:42.988Z,-8.99
2018-02-27T20:27:11.385Z,-8.87
2018-02-27T20:29:39.813Z,-8.89
2018-02-27T20:32:08.235Z,-8.94
2018-02-27T20:34:36.586Z,-9.06
2018-02-27T20:37:05.034Z,-9.06
2018-02-27T20:39:33.385Z,-9.11
2018-02-27T20:42:01.690Z,-9.11
2018-02-27T20:44:30.091Z,-9.14
2018-02-27T20:46:58.421Z,-9.21
2018-02-27T20:49:26.802Z,-9.27
2018-02-27T20:51:55.182Z,-9.31
2018-02-27T20:54:23.515Z,-9.36
2018-02-27T20:56:51.898Z,-9.26
2018-02-27T20:59:20.295Z,-9.24
2018-02-27T21:01:48.659Z,-9.34
2018-02-27T21:04:17.095Z,-9.37
2018-02-27T21:06:45.478Z,-9.45
2018-02-27T21:09:13.845Z,-9.44
2018-02-27T21:11:42.162Z,-9.47
2018-02-27T21:14:10.518Z,-9.50
2018-02-27T21:16:38.911Z,-9.54
2018-02-27T21:19:07.327Z,-9.50
2018-02-27T21:21:35.723Z,-9.53
2018-02-27T21:24:04.104Z,-9.57
2018-02-27T21:26:32.445Z,-9.66
2018-02-27T21:29:00.834Z,-9.69
2018-02-27T21:31:29.243Z,-9.71
2018-02-27T21:33:57.610Z,-9.74
2018-02-27T21:36:26.025Z,-9.79
2018-02-27T21:38:54.392Z,-9.82
2018-02-27T21:41:22.768Z,-9.82
2018-02-27T21:43:51.133Z,-9.84
2018-02-27T21:46:19.625Z,-9.87
2018-02-27T21:48:47.928Z,-9.90
2018-02-27T21:51:16.297Z,-9.94
2018-02-27T21:53:44.679Z,-9.95
2018-02-27T21:56:13.041Z,-9.92
2018-02-27T21:58:41.384Z,-9.92
2018-02-27T22:01:09.712Z,-9.96
2018-02-27T22:03:38.075Z,-10.00
2018-02-27T22:06:06.410Z,-10.00
2018-02-27T22:08:35.691Z,-9.98
2018-02-27T22:11:04.058Z,-10.01
2018-02-27T22:13:32.501Z,-10.12
2018-02-27T22:16:00.848Z,-10.15
2018-02-27T22:18:29.314Z,-10.35
2018-02-27T22:20:57.673Z,-10.26
2018-02-27T22:23:26.089Z,-10.27
2018-02-27T22:25:54.437Z,-10.24
2018-02-27T22:28:22.745Z,-10.30
2018-02-27T22:30:51.123Z,-10.31
2018-02-27T22:33:19.589Z,-10.34
2018-02-27T22:35:47.940Z,-10.34
2018-02-27T22:38:16.537Z,-10.54
2018-02-27T22:40:44.900Z,-10.40
2018-02-27T22:43:13.227Z,-10.53
2018-02-27T22:45:41.614Z,-10.80
2018-02-27T22:48:10.010Z,-11.00
2018-02-27T22:50:38.394Z,-11.02
2018-02-27T22:53:06.789Z,-11.09
2018-02-27T22:55:35.174Z,-10.94
2018-02-27T22:58:03.549Z,-11.25
2018-02-27T23:00:39.755Z,-11.34
2018-02-27T23:03:08.105Z,-11.51
2018-02-27T23:05:36.413Z,-11.52
2018-02-27T23:08:04.811Z,-11.56
2018-02-27T23:10:33.168Z,-11.65
2018-02-27T23:13:01.481Z,-11.50
2018-02-27T23:15:29.855Z,-11.52
2018-02-27T23:17:58.286Z,-11.36
2018-02-27T23:20:26.635Z,-11.62
2018-02-27T23:22:55.053Z,-11.72
2018-02-27T23:25:27.939Z,-11.59
2018-02-27T23:27:58.294Z,-11.63
2018-02-27T23:30:27.673Z,-11.60
2018-02-27T23:32:57.491Z,-11.43
2018-02-27T23:35:26.308Z,-11.45
2018-02-27T23:37:55.489Z,-11.34
2018-02-27T23:40:23.821Z,-11.48
2018-02-27T23:42:52.216Z,-11.52
2018-02-27T23:45:20.537Z,-11.58
2018-02-27T23:47:48.891Z,-11.45
2018-02-27T23:50:17.282Z,-11.49
2018-02-27T23:52:45.611Z,-11.37
2018-02-27T23:55:13.960Z,-11.35
2018-02-27T23:57:42.317Z,-11.56
